Time;durP1;ratioP1;P1;durP2;ratioP2;P2;SDS_P1;SDS_P2;PMS_P1;PMS_P2;Temp;Humidity;BMP_temperature;BMP_pressure;BME280_temperature;BME280_humidity;BME280_pressure;Samples;Min_cycle;Max_cycle;Signal;HPM_P1;HPM_P2
2023/04/29 00:00:11;;;;;;;39.28;22.90;;;;;;;;;;5092562;27;20051;-71
2023/04/29 00:02:37;;;;;;;43.92;23.00;;;;;;;;;;5089798;27;20058;-71
2023/04/29 00:05:04;;;;;;;46.72;25.75;;;;;;;;;;5090679;27;20188;-71
2023/04/29 00:07:31;;;;;;;55.53;26.35;;;;;;;;;;5093273;27;20043;-71
2023/04/29 00:09:57;;;;;;;45.67;25.63;;;;;;;;;;5093295;27;20293;-72
2023/04/29 00:12:23;;;;;;;41.83;24.58;;;;;;;;;;5092674;27;20060;-71
2023/04/29 00:14:50;;;;;;;50.28;25.50;;;;;;;;;;5087483;27;20043;-72
2023/04/29 00:17:16;;;;;;;43.45;25.25;;;;;;;;;;5088365;27;20141;-71
2023/04/29 00:19:42;;;;;;;41.40;24.20;;;;;;;;;;5090017;27;20038;-71
2023/04/29 00:22:08;;;;;;;37.90;23.25;;;;;;;;;;5084607;27;20085;-71
2023/04/29 00:24:34;;;;;;;44.08;21.88;;;;;;;;;;5087123;27;20721;-71
2023/04/29 00:27:01;;;;;;;40.10;21.67;;;;;;;;;;5069687;27;20059;-71
2023/04/29 00:29:27;;;;;;;40.30;21.90;;;;;;;;;;5087134;27;20066;-71
2023/04/29 00:31:53;;;;;;;47.15;21.38;;;;;;;;;;5089054;27;20039;-71
2023/04/29 00:34:20;;;;;;;41.67;22.52;;;;;;;;;;5075669;27;20054;-71
2023/04/29 00:36:46;;;;;;;41.03;21.65;;;;;;;;;;5089906;27;20416;-71
2023/04/29 00:39:12;;;;;;;41.17;21.52;;;;;;;;;;5091973;27;20196;-71
2023/04/29 00:41:38;;;;;;;39.05;21.35;;;;;;;;;;5091430;27;20056;-71
2023/04/29 00:44:05;;;;;;;47.13;21.73;;;;;;;;;;5091828;27;20035;-71
2023/04/29 00:46:32;;;;;;;33.47;19.52;;;;;;;;;;5089983;27;20044;-71
2023/04/29 00:48:59;;;;;;;30.88;20.60;;;;;;;;;;5090616;27;20086;-71
2023/04/29 00:51:26;;;;;;;37.70;21.88;;;;;;;;;;5090366;27;20044;-71
2023/04/29 00:53:52;;;;;;;34.22;20.85;;;;;;;;;;5088347;27;20669;-71
2023/04/29 00:56:19;;;;;;;40.88;21.75;;;;;;;;;;5086386;27;20046;-72
2023/04/29 00:58:49;;;;;;;42.70;23.63;;;;;;;;;;5062738;27;20111;-71
2023/04/29 01:01:18;;;;;;;38.83;22.42;;;;;;;;;;5087776;27;20089;-72
2023/04/29 01:03:44;;;;;;;48.00;25.05;;;;;;;;;;5087649;27;20048;-70
2023/04/29 01:06:10;;;;;;;46.10;23.40;;;;;;;;;;5087489;27;20736;-71
2023/04/29 01:08:43;;;;;;;42.50;22.90;;;;;;;;;;5086471;27;20047;-71
2023/04/29 01:11:10;;;;;;;40.47;21.67;;;;;;;;;;5083781;27;20092;-70
2023/04/29 01:13:43;;;;;;;35.55;20.58;;;;;;;;;;5085937;27;20212;-71
2023/04/29 01:16:41;;;;;;;40.88;20.45;;;;;;;;;;5089703;27;20040;-71
2023/04/29 01:19:16;;;;;;;37.95;18.88;;;;;;;;;;5048637;27;20055;-71
2023/04/29 01:21:49;;;;;;;41.05;20.73;;;;;;;;;;5086635;27;20061;-71
2023/04/29 01:24:16;;;;;;;46.35;23.00;;;;;;;;;;5085838;27;20040;-71
2023/04/29 01:26:45;;;;;;;41.33;21.98;;;;;;;;;;5086671;27;20775;-71
2023/04/29 01:29:14;;;;;;;41.15;22.23;;;;;;;;;;5084708;27;20138;-71
2023/04/29 01:31:40;;;;;;;44.67;22.38;;;;;;;;;;5088864;27;20128;-71
2023/04/29 01:34:12;;;;;;;38.50;21.63;;;;;;;;;;5089428;27;20039;-71
2023/04/29 01:36:57;;;;;;;36.55;20.73;;;;;;;;;;5084311;27;20044;-73
2023/04/29 01:39:32;;;;;;;39.22;20.00;;;;;;;;;;5085082;27;20063;-73
2023/04/29 01:42:17;;;;;;;34.95;19.92;;;;;;;;;;5086852;27;20039;-73
2023/04/29 01:44:43;;;;;;;42.13;20.63;;;;;;;;;;5086228;27;20053;-73
2023/04/29 01:47:12;;;;;;;38.05;20.05;;;;;;;;;;5086556;27;20062;-73
2023/04/29 01:49:39;;;;;;;39.40;19.15;;;;;;;;;;5086133;27;20078;-73
2023/04/29 01:52:06;;;;;;;38.05;19.23;;;;;;;;;;5085517;27;20135;-73
2023/04/29 01:54:35;;;;;;;33.17;18.60;;;;;;;;;;5086317;27;20054;-73
2023/04/29 01:57:02;;;;;;;33.08;18.13;;;;;;;;;;5071516;28;20040;-73
2023/04/29 01:59:28;;;;;;;33.42;17.70;;;;;;;;;;5088126;27;20156;-73
2023/04/29 02:01:55;;;;;;;31.63;19.13;;;;;;;;;;5085208;27;20109;-73
2023/04/29 02:04:23;;;;;;;27.25;17.80;;;;;;;;;;5087363;27;20912;-73
2023/04/29 02:06:51;;;;;;;32.80;17.58;;;;;;;;;;5105263;27;20066;-73
2023/04/29 02:09:17;;;;;;;42.88;18.80;;;;;;;;;;5090828;27;20040;-73
2023/04/29 02:11:44;;;;;;;36.65;17.55;;;;;;;;;;5089153;27;20067;-71
2023/04/29 02:14:11;;;;;;;32.42;17.90;;;;;;;;;;5089975;27;20541;-71
2023/04/29 02:16:37;;;;;;;38.80;17.80;;;;;;;;;;5087994;27;21265;-71
2023/04/29 02:19:03;;;;;;;31.67;17.33;;;;;;;;;;5088088;27;20047;-71
2023/04/29 02:21:30;;;;;;;32.72;18.67;;;;;;;;;;5091108;27;20078;-71
2023/04/29 02:23:56;;;;;;;28.55;17.92;;;;;;;;;;5086344;27;20496;-71
2023/04/29 02:26:23;;;;;;;33.75;17.92;;;;;;;;;;5091349;27;20039;-71
2023/04/29 02:28:51;;;;;;;27.85;18.10;;;;;;;;;;5089396;27;20124;-71
2023/04/29 02:31:17;;;;;;;30.35;17.10;;;;;;;;;;5082404;27;20035;-71
2023/04/29 02:33:43;;;;;;;36.67;19.52;;;;;;;;;;5085247;27;20248;-71
2023/04/29 02:36:09;;;;;;;36.20;18.90;;;;;;;;;;5089728;27;20040;-71
2023/04/29 02:38:35;;;;;;;30.70;18.00;;;;;;;;;;5085317;27;20051;-71
2023/04/29 02:41:01;;;;;;;34.35;18.88;;;;;;;;;;5061185;28;20135;-71
2023/04/29 02:43:29;;;;;;;33.08;17.83;;;;;;;;;;5073370;27;20050;-71
2023/04/29 02:45:56;;;;;;;32.83;18.55;;;;;;;;;;5078313;28;20082;-71
2023/04/29 02:48:22;;;;;;;35.42;18.13;;;;;;;;;;5077401;27;20048;-71
2023/04/29 02:50:48;;;;;;;31.73;17.50;;;;;;;;;;5079140;27;20434;-71
2023/04/29 02:53:15;;;;;;;33.42;17.48;;;;;;;;;;5079691;27;20088;-71
2023/04/29 02:55:42;;;;;;;30.10;16.80;;;;;;;;;;5089251;27;20043;-71
2023/04/29 02:58:09;;;;;;;31.35;16.17;;;;;;;;;;5077751;27;20393;-71
2023/04/29 03:00:35;;;;;;;29.55;17.85;;;;;;;;;;5076921;27;20490;-71
2023/04/29 03:03:01;;;;;;;31.38;17.27;;;;;;;;;;5074259;27;20080;-71
2023/04/29 03:05:27;;;;;;;37.17;17.80;;;;;;;;;;5077780;27;20114;-72
2023/04/29 03:07:53;;;;;;;37.45;18.35;;;;;;;;;;5089541;28;20950;-71
2023/04/29 03:10:19;;;;;;;31.55;17.92;;;;;;;;;;5088312;28;20044;-71
2023/04/29 03:12:45;;;;;;;35.10;18.67;;;;;;;;;;5086503;27;20060;-71
2023/04/29 03:15:12;;;;;;;29.50;18.10;;;;;;;;;;5091560;27;20051;-71
2023/04/29 03:17:38;;;;;;;39.72;20.10;;;;;;;;;;5089878;27;20051;-72
2023/04/29 03:20:05;;;;;;;36.05;20.30;;;;;;;;;;5090191;27;20475;-71
2023/04/29 03:22:31;;;;;;;37.15;21.23;;;;;;;;;;5084961;27;20071;-71
2023/04/29 03:24:57;;;;;;;35.90;20.48;;;;;;;;;;5086857;27;20044;-71
2023/04/29 03:27:23;;;;;;;31.02;20.02;;;;;;;;;;5085552;27;20059;-71
2023/04/29 03:29:49;;;;;;;38.10;20.50;;;;;;;;;;5087429;27;20044;-71
2023/04/29 03:32:15;;;;;;;38.30;20.15;;;;;;;;;;5062332;27;20079;-71
2023/04/29 03:34:41;;;;;;;36.70;18.70;;;;;;;;;;5081551;27;20105;-71
2023/04/29 03:37:08;;;;;;;36.80;19.38;;;;;;;;;;5085220;27;20142;-71
2023/04/29 03:39:34;;;;;;;34.25;19.42;;;;;;;;;;5058866;27;20050;-71
2023/04/29 03:42:00;;;;;;;30.60;18.38;;;;;;;;;;5075852;27;20093;-71
2023/04/29 03:44:28;;;;;;;31.98;18.58;;;;;;;;;;5061252;27;20051;-71
2023/04/29 03:46:54;;;;;;;32.88;18.30;;;;;;;;;;5082230;27;20065;-71
2023/04/29 03:49:20;;;;;;;28.45;17.45;;;;;;;;;;5081800;27;20039;-71
2023/04/29 03:51:46;;;;;;;32.10;17.35;;;;;;;;;;5066232;27;20051;-72
2023/04/29 03:54:12;;;;;;;26.80;16.98;;;;;;;;;;5085866;27;20036;-72
2023/04/29 03:56:38;;;;;;;29.83;16.92;;;;;;;;;;5084951;27;20605;-71
2023/04/29 03:59:05;;;;;;;32.92;17.10;;;;;;;;;;5085240;27;20043;-72
2023/04/29 04:01:31;;;;;;;25.38;16.23;;;;;;;;;;5066971;27;20127;-71
2023/04/29 04:03:57;;;;;;;31.38;17.30;;;;;;;;;;5086947;27;20035;-72
2023/04/29 04:06:23;;;;;;;28.85;15.65;;;;;;;;;;5089712;27;20040;-72
2023/04/29 04:08:49;;;;;;;27.92;16.23;;;;;;;;;;5090874;27;20043;-72
2023/04/29 04:11:15;;;;;;;27.27;15.13;;;;;;;;;;5074295;27;20101;-72
2023/04/29 04:13:44;;;;;;;24.10;15.70;;;;;;;;;;5090200;27;20147;-72
2023/04/29 04:16:10;;;;;;;30.58;15.65;;;;;;;;;;5091911;27;20076;-72
2023/04/29 04:18:37;;;;;;;31.63;16.27;;;;;;;;;;5091390;27;20044;-72
2023/04/29 04:21:10;;;;;;;36.25;16.75;;;;;;;;;;5091656;27;20057;-72
2023/04/29 04:23:39;;;;;;;31.53;16.07;;;;;;;;;;5089756;27;20046;-72
2023/04/29 04:26:05;;;;;;;30.17;16.92;;;;;;;;;;5089416;27;20043;-72
2023/04/29 04:28:31;;;;;;;35.63;17.50;;;;;;;;;;5074025;27;20078;-70
2023/04/29 04:30:57;;;;;;;35.35;18.38;;;;;;;;;;5089079;27;20040;-73
2023/04/29 04:33:24;;;;;;;35.45;19.88;;;;;;;;;;5083618;27;20034;-73
2023/04/29 04:35:51;;;;;;;35.08;19.80;;;;;;;;;;5087667;27;20047;-72
2023/04/29 04:38:17;;;;;;;37.88;21.23;;;;;;;;;;5084763;27;20536;-73
2023/04/29 04:40:43;;;;;;;37.25;21.23;;;;;;;;;;5087651;27;20054;-73
2023/04/29 04:43:10;;;;;;;43.15;23.30;;;;;;;;;;5088124;27;20143;-73
2023/04/29 04:45:36;;;;;;;41.22;23.90;;;;;;;;;;5085542;27;22403;-73
2023/04/29 04:48:02;;;;;;;40.65;22.55;;;;;;;;;;5082216;27;20138;-73
2023/04/29 04:50:28;;;;;;;26.88;17.10;;;;;;;;;;5082377;27;20083;-73
2023/04/29 04:52:57;;;;;;;27.55;15.27;;;;;;;;;;5079702;27;20130;-74
2023/04/29 04:55:23;;;;;;;31.50;15.13;;;;;;;;;;5082215;27;20044;-74
2023/04/29 04:57:50;;;;;;;24.10;13.07;;;;;;;;;;5083874;27;20127;-74
2023/04/29 05:00:16;;;;;;;24.58;13.57;;;;;;;;;;5082255;27;20082;-74
2023/04/29 05:02:42;;;;;;;23.75;14.05;;;;;;;;;;5085342;27;20142;-74
2023/04/29 05:05:08;;;;;;;24.45;12.77;;;;;;;;;;5078470;27;20072;-74
2023/04/29 05:07:37;;;;;;;24.30;14.00;;;;;;;;;;5083388;27;20051;-74
2023/04/29 05:10:03;;;;;;;20.95;12.93;;;;;;;;;;5048354;27;20054;-74
2023/04/29 05:12:30;;;;;;;21.88;11.60;;;;;;;;;;5080035;27;20060;-75
2023/04/29 05:14:56;;;;;;;19.73;10.75;;;;;;;;;;5084262;27;20042;-74
2023/04/29 05:17:23;;;;;;;20.40;11.45;;;;;;;;;;5085815;27;20046;-74
2023/04/29 05:19:49;;;;;;;19.40;11.95;;;;;;;;;;5089890;27;20183;-74
2023/04/29 05:22:15;;;;;;;18.75;11.82;;;;;;;;;;5081818;27;20058;-73
2023/04/29 05:24:41;;;;;;;17.92;11.20;;;;;;;;;;5085358;27;20104;-73
2023/04/29 05:27:07;;;;;;;23.58;13.02;;;;;;;;;;5081944;27;20055;-74
2023/04/29 05:29:33;;;;;;;18.80;12.10;;;;;;;;;;5087645;27;21937;-75
2023/04/29 05:31:59;;;;;;;17.73;11.55;;;;;;;;;;5091572;27;20036;-73
2023/04/29 05:34:25;;;;;;;22.42;13.05;;;;;;;;;;5091648;27;20083;-73
2023/04/29 05:36:51;;;;;;;15.55;12.23;;;;;;;;;;5106063;27;20126;-73
2023/04/29 05:39:17;;;;;;;20.00;12.00;;;;;;;;;;5090251;27;20536;-73
2023/04/29 05:41:43;;;;;;;19.88;12.00;;;;;;;;;;5090059;27;20122;-73
2023/04/29 05:44:10;;;;;;;20.33;11.65;;;;;;;;;;5084448;27;20039;-73
2023/04/29 05:46:36;;;;;;;20.35;11.90;;;;;;;;;;5093164;27;21736;-73
2023/04/29 05:49:02;;;;;;;20.52;11.32;;;;;;;;;;5092122;27;20098;-73
2023/04/29 05:51:28;;;;;;;20.45;11.88;;;;;;;;;;5078359;27;20498;-73
2023/04/29 05:53:55;;;;;;;23.48;11.65;;;;;;;;;;5095010;27;20708;-73
2023/04/29 05:56:22;;;;;;;17.10;11.25;;;;;;;;;;5100071;27;20047;-73
2023/04/29 05:58:48;;;;;;;14.80;10.48;;;;;;;;;;5093539;27;20036;-73
2023/04/29 06:01:16;;;;;;;23.08;11.13;;;;;;;;;;5104888;27;20058;-73
2023/04/29 06:03:42;;;;;;;19.73;12.02;;;;;;;;;;5090654;27;21028;-72
2023/04/29 06:06:08;;;;;;;14.00;10.32;;;;;;;;;;5093267;27;20381;-72
2023/04/29 06:08:34;;;;;;;17.27;10.57;;;;;;;;;;5065002;27;20050;-73
2023/04/29 06:11:02;;;;;;;17.52;9.88;;;;;;;;;;5076110;27;20579;-72
2023/04/29 06:13:29;;;;;;;17.27;10.15;;;;;;;;;;5093173;27;20450;-73
2023/04/29 06:15:55;;;;;;;15.38;9.50;;;;;;;;;;5093620;27;20075;-72
2023/04/29 06:18:22;;;;;;;16.95;9.90;;;;;;;;;;5092854;27;20050;-73
2023/04/29 06:20:48;;;;;;;16.52;9.30;;;;;;;;;;5082510;27;20093;-72
2023/04/29 06:23:14;;;;;;;15.88;9.85;;;;;;;;;;5090601;27;20521;-73
2023/04/29 06:25:40;;;;;;;19.55;8.93;;;;;;;;;;5092622;27;20147;-73
2023/04/29 06:28:07;;;;;;;13.55;9.02;;;;;;;;;;5091852;27;20047;-72
2023/04/29 06:30:33;;;;;;;17.50;9.73;;;;;;;;;;5081737;27;20075;-72
2023/04/29 06:32:59;;;;;;;13.45;8.88;;;;;;;;;;5074144;27;20078;-73
2023/04/29 06:35:25;;;;;;;16.90;9.43;;;;;;;;;;5081853;27;20039;-73
2023/04/29 06:37:52;;;;;;;14.77;9.30;;;;;;;;;;5087529;27;20301;-72
2023/04/29 06:40:18;;;;;;;17.95;9.25;;;;;;;;;;5082672;28;20055;-73
2023/04/29 06:42:44;;;;;;;14.07;8.93;;;;;;;;;;5089910;28;20621;-73
2023/04/29 06:45:10;;;;;;;18.10;9.52;;;;;;;;;;5088392;28;20035;-73
2023/04/29 06:47:36;;;;;;;14.05;8.18;;;;;;;;;;5072003;27;20043;-72
2023/04/29 06:50:02;;;;;;;16.48;8.20;;;;;;;;;;5094710;27;20043;-73
2023/04/29 06:52:30;;;;;;;14.80;9.07;;;;;;;;;;5072658;27;20071;-73
2023/04/29 06:54:56;;;;;;;15.32;8.77;;;;;;;;;;5097290;27;20574;-73
2023/04/29 06:57:22;;;;;;;15.35;8.65;;;;;;;;;;5080116;28;20942;-72
2023/04/29 06:59:48;;;;;;;13.05;9.10;;;;;;;;;;5097652;27;20078;-74
2023/04/29 07:02:15;;;;;;;13.00;8.13;;;;;;;;;;5097057;27;20043;-73
2023/04/29 07:04:41;;;;;;;15.85;7.70;;;;;;;;;;5094563;27;20046;-73
2023/04/29 07:07:07;;;;;;;12.38;7.38;;;;;;;;;;5094627;27;20217;-72
2023/04/29 07:09:33;;;;;;;18.33;8.32;;;;;;;;;;5113134;27;20039;-73
2023/04/29 07:12:00;;;;;;;16.25;8.00;;;;;;;;;;5087788;27;20054;-73
2023/04/29 07:14:26;;;;;;;15.90;7.28;;;;;;;;;;5071556;27;20043;-73
2023/04/29 07:16:53;;;;;;;15.63;7.05;;;;;;;;;;5082463;27;20054;-73
2023/04/29 07:19:20;;;;;;;12.68;7.18;;;;;;;;;;5088526;27;20047;-73
2023/04/29 07:21:46;;;;;;;19.67;7.45;;;;;;;;;;5083550;27;20134;-73
2023/04/29 07:24:12;;;;;;;14.70;7.60;;;;;;;;;;5062873;27;20104;-73
2023/04/29 07:26:38;;;;;;;15.30;6.50;;;;;;;;;;5085659;27;20042;-73
2023/04/29 07:29:04;;;;;;;13.82;6.65;;;;;;;;;;5082502;27;20056;-73
2023/04/29 07:31:30;;;;;;;16.90;7.25;;;;;;;;;;5068601;27;20675;-74
2023/04/29 07:33:57;;;;;;;13.18;8.00;;;;;;;;;;5085354;27;20186;-74
2023/04/29 07:36:23;;;;;;;11.45;6.68;;;;;;;;;;5060314;27;20043;-72
2023/04/29 07:38:49;;;;;;;17.67;8.43;;;;;;;;;;5082502;27;20051;-73
2023/04/29 07:41:15;;;;;;;10.75;7.00;;;;;;;;;;5075348;27;21672;-74
2023/04/29 07:43:41;;;;;;;13.65;7.10;;;;;;;;;;5086410;27;20812;-73
2023/04/29 07:46:07;;;;;;;17.10;7.13;;;;;;;;;;5087687;27;20040;-74
2023/04/29 07:48:40;;;;;;;14.05;7.07;;;;;;;;;;5090971;27;20044;-74
2023/04/29 07:51:07;;;;;;;16.05;7.43;;;;;;;;;;5086658;27;20047;-73
2023/04/29 07:53:33;;;;;;;15.55;7.47;;;;;;;;;;5086538;27;20045;-74
2023/04/29 07:55:59;;;;;;;11.75;6.88;;;;;;;;;;5088839;27;20039;-74
2023/04/29 07:58:27;;;;;;;18.15;7.75;;;;;;;;;;5081693;27;20326;-73
2023/04/29 08:00:53;;;;;;;10.90;7.68;;;;;;;;;;5088700;27;20158;-73
2023/04/29 08:03:20;;;;;;;11.15;7.07;;;;;;;;;;5082986;27;20137;-74
2023/04/29 08:05:47;;;;;;;16.02;7.85;;;;;;;;;;5088942;27;20044;-74
2023/04/29 08:08:13;;;;;;;11.63;7.10;;;;;;;;;;5088553;27;20052;-74
2023/04/29 08:10:41;;;;;;;14.07;6.95;;;;;;;;;;5062470;27;21793;-74
2023/04/29 08:13:08;;;;;;;11.95;7.20;;;;;;;;;;5085148;27;20059;-74
2023/04/29 08:15:34;;;;;;;12.35;7.18;;;;;;;;;;5084295;27;20123;-74
2023/04/29 08:18:00;;;;;;;15.95;6.75;;;;;;;;;;5083011;27;20184;-73
2023/04/29 08:20:27;;;;;;;10.65;6.72;;;;;;;;;;5077081;27;20046;-73
2023/04/29 08:22:53;;;;;;;11.65;6.32;;;;;;;;;;5083501;27;20059;-73
2023/04/29 08:25:20;;;;;;;10.15;5.90;;;;;;;;;;5082412;27;20051;-73
2023/04/29 08:27:46;;;;;;;15.95;6.47;;;;;;;;;;5082118;27;21658;-73
2023/04/29 08:30:12;;;;;;;10.68;5.68;;;;;;;;;;5082825;27;20039;-73
2023/04/29 08:32:38;;;;;;;10.98;4.93;;;;;;;;;;5083766;27;20050;-73
2023/04/29 08:35:04;;;;;;;8.13;4.38;;;;;;;;;;5082073;27;20076;-74
2023/04/29 08:37:31;;;;;;;6.93;4.15;;;;;;;;;;5059148;27;20169;-73
2023/04/29 08:39:57;;;;;;;9.00;3.67;;;;;;;;;;5078457;27;20178;-74
2023/04/29 08:42:32;;;;;;;15.65;3.95;;;;;;;;;;5079539;27;20058;-74
2023/04/29 08:44:59;;;;;;;12.50;3.45;;;;;;;;;;5084434;27;20126;-74
2023/04/29 08:47:26;;;;;;;8.52;3.55;;;;;;;;;;5086118;27;20046;-73
2023/04/29 08:49:53;;;;;;;10.02;3.60;;;;;;;;;;5086004;27;20403;-74
2023/04/29 08:52:19;;;;;;;10.15;3.92;;;;;;;;;;5084276;27;20107;-74
2023/04/29 08:54:45;;;;;;;13.45;3.67;;;;;;;;;;5060547;27;20044;-73
2023/04/29 08:57:12;;;;;;;8.88;3.28;;;;;;;;;;5081114;27;20867;-73
2023/04/29 08:59:38;;;;;;;4.72;3.35;;;;;;;;;;5051284;27;20062;-74
2023/04/29 09:02:10;;;;;;;14.65;3.67;;;;;;;;;;5083858;27;20054;-74
2023/04/29 09:04:45;;;;;;;5.95;3.42;;;;;;;;;;5083743;27;21725;-74
2023/04/29 09:07:11;;;;;;;8.15;3.88;;;;;;;;;;5086601;27;20537;-74
2023/04/29 09:09:38;;;;;;;15.18;4.75;;;;;;;;;;5088188;27;20043;-74
2023/04/29 09:12:05;;;;;;;9.93;2.90;;;;;;;;;;5089750;27;20051;-74
2023/04/29 09:14:33;;;;;;;12.40;4.10;;;;;;;;;;5078866;27;20083;-74
2023/04/29 09:16:59;;;;;;;12.60;4.63;;;;;;;;;;5087690;27;20047;-74
2023/04/29 09:19:31;;;;;;;7.88;3.25;;;;;;;;;;5087713;27;20099;-74
2023/04/29 09:21:58;;;;;;;14.77;4.13;;;;;;;;;;5067799;27;20047;-74
2023/04/29 09:24:29;;;;;;;8.38;3.67;;;;;;;;;;5088882;27;20611;-74
2023/04/29 09:26:55;;;;;;;7.75;4.28;;;;;;;;;;5083392;27;20159;-74
2023/04/29 09:29:21;;;;;;;13.63;4.38;;;;;;;;;;5086133;27;20051;-74
2023/04/29 09:31:48;;;;;;;13.32;3.30;;;;;;;;;;5086854;27;20122;-74
2023/04/29 09:34:15;;;;;;;10.43;4.28;;;;;;;;;;5089887;27;20051;-74
2023/04/29 09:36:55;;;;;;;10.20;3.75;;;;;;;;;;5079330;27;21058;-74
2023/04/29 09:39:22;;;;;;;9.13;3.92;;;;;;;;;;5086500;27;20507;-74
2023/04/29 09:41:54;;;;;;;7.95;4.15;;;;;;;;;;5090153;27;20126;-74
2023/04/29 09:44:21;;;;;;;9.10;4.80;;;;;;;;;;5085691;27;20036;-74
2023/04/29 09:46:56;;;;;;;10.60;4.47;;;;;;;;;;5087916;27;20394;-74
2023/04/29 09:49:24;;;;;;;;;;;;;;;;;;5087519;27;20079;-74
2023/04/29 09:51:54;;;;;;;9.23;4.00;;;;;;;;;;5088132;27;20232;-74
2023/04/29 09:54:21;;;;;;;8.18;4.40;;;;;;;;;;5089687;27;20054;-74
2023/04/29 09:56:48;;;;;;;10.30;4.15;;;;;;;;;;5088734;27;20134;-73
2023/04/29 09:59:15;;;;;;;8.70;4.45;;;;;;;;;;5082178;27;20050;-73
2023/04/29 10:01:41;;;;;;;9.52;4.80;;;;;;;;;;5074822;27;20507;-73
2023/04/29 10:04:10;;;;;;;10.60;5.20;;;;;;;;;;5077188;27;20078;-73
2023/04/29 10:06:37;;;;;;;10.88;5.40;;;;;;;;;;5086950;27;20044;-73
2023/04/29 10:09:04;;;;;;;15.55;6.50;;;;;;;;;;5084438;27;20086;-73
2023/04/29 10:11:30;;;;;;;14.80;5.55;;;;;;;;;;5082424;27;20039;-73
2023/04/29 10:13:57;;;;;;;13.60;6.45;;;;;;;;;;5083360;27;20058;-73
2023/04/29 10:16:34;;;;;;;8.57;5.55;;;;;;;;;;5083329;27;20047;-73
2023/04/29 10:19:05;;;;;;;8.77;5.68;;;;;;;;;;5065107;27;20125;-74
2023/04/29 10:21:31;;;;;;;11.45;5.03;;;;;;;;;;5081753;27;20178;-73
2023/04/29 10:23:58;;;;;;;10.80;4.53;;;;;;;;;;5081563;27;20047;-73
2023/04/29 10:26:28;;;;;;;9.43;4.88;;;;;;;;;;5083108;27;20035;-73
2023/04/29 10:28:58;;;;;;;9.02;3.70;;;;;;;;;;5083176;27;20039;-73
2023/04/29 10:31:31;;;;;;;13.80;4.57;;;;;;;;;;5081121;27;20517;-74
2023/04/29 10:33:58;;;;;;;10.57;4.30;;;;;;;;;;5055956;28;20058;-73
2023/04/29 10:36:30;;;;;;;5.57;3.67;;;;;;;;;;5080412;27;20040;-71
2023/04/29 10:38:58;;;;;;;9.38;3.15;;;;;;;;;;5080081;27;20202;-70
2023/04/29 10:41:29;;;;;;;5.85;2.75;;;;;;;;;;5081542;27;21593;-72
2023/04/29 10:43:55;;;;;;;9.90;3.50;;;;;;;;;;5085449;28;20082;-70
2023/04/29 10:46:25;;;;;;;9.60;4.35;;;;;;;;;;5083727;27;20051;-73
2023/04/29 10:48:55;;;;;;;11.38;4.18;;;;;;;;;;5059002;28;20043;-73
2023/04/29 10:51:30;;;;;;;7.68;4.60;;;;;;;;;;5079704;27;20040;-73
2023/04/29 10:54:02;;;;;;;7.03;3.42;;;;;;;;;;5085747;27;20391;-73
2023/04/29 10:56:48;;;;;;;9.80;3.15;;;;;;;;;;5085044;28;22499;-73
2023/04/29 10:59:15;;;;;;;6.00;2.95;;;;;;;;;;5061901;28;20130;-71
2023/04/29 11:01:54;;;;;;;11.30;3.65;;;;;;;;;;5086670;27;20110;-71
2023/04/29 11:04:21;;;;;;;4.25;2.95;;;;;;;;;;5082219;27;20050;-70
2023/04/29 11:06:51;;;;;;;9.38;3.15;;;;;;;;;;5074836;27;20048;-71
2023/04/29 11:09:21;;;;;;;7.47;3.13;;;;;;;;;;5082892;27;20047;-71
2023/04/29 11:11:52;;;;;;;6.30;3.00;;;;;;;;;;5086902;27;20594;-71
2023/04/29 11:14:29;;;;;;;4.97;2.83;;;;;;;;;;5078935;28;22473;-71
2023/04/29 11:16:57;;;;;;;4.47;2.63;;;;;;;;;;5084208;27;20583;-71
2023/04/29 11:19:46;;;;;;;6.32;2.70;;;;;;;;;;5077240;27;21700;-71
2023/04/29 11:22:18;;;;;;;8.88;3.28;;;;;;;;;;5085736;27;20043;-71
2023/04/29 11:24:50;;;;;;;5.97;2.50;;;;;;;;;;5085167;27;20050;-71
2023/04/29 11:27:18;;;;;;;8.27;3.08;;;;;;;;;;5082704;28;20509;-71
2023/04/29 11:29:45;;;;;;;6.00;2.90;;;;;;;;;;5080242;27;21252;-71
2023/04/29 11:32:11;;;;;;;7.35;2.78;;;;;;;;;;5081524;27;20686;-71
2023/04/29 11:34:37;;;;;;;6.35;2.80;;;;;;;;;;5067657;27;20126;-71
2023/04/29 11:37:04;;;;;;;4.43;2.85;;;;;;;;;;5088760;27;20043;-71
2023/04/29 11:39:34;;;;;;;5.90;2.50;;;;;;;;;;5090971;27;20474;-71
2023/04/29 11:42:06;;;;;;;8.85;3.05;;;;;;;;;;5086381;27;21027;-71
2023/04/29 11:44:36;;;;;;;5.72;2.92;;;;;;;;;;5090848;27;20099;-71
2023/04/29 11:47:12;;;;;;;10.10;2.55;;;;;;;;;;5091998;27;20405;-71
2023/04/29 11:49:38;;;;;;;11.50;3.50;;;;;;;;;;5085959;27;20043;-71
2023/04/29 11:52:05;;;;;;;9.05;4.03;;;;;;;;;;5078989;27;20040;-71
2023/04/29 11:54:31;;;;;;;8.18;3.65;;;;;;;;;;5080753;27;20047;-72
2023/04/29 11:57:03;;;;;;;8.10;3.70;;;;;;;;;;5062530;27;20749;-71
2023/04/29 11:59:31;;;;;;;7.20;3.17;;;;;;;;;;5062930;27;20455;-71
2023/04/29 12:01:59;;;;;;;7.20;3.38;;;;;;;;;;5087205;27;20043;-71
2023/04/29 12:04:25;;;;;;;7.15;3.13;;;;;;;;;;5065576;27;20370;-71
2023/04/29 12:06:52;;;;;;;4.32;2.65;;;;;;;;;;5083373;27;20043;-71
2023/04/29 12:09:18;;;;;;;4.07;2.60;;;;;;;;;;5063420;27;20648;-71
2023/04/29 12:11:45;;;;;;;6.90;3.85;;;;;;;;;;5092471;27;20144;-71
2023/04/29 12:14:12;;;;;;;9.57;3.00;;;;;;;;;;5084925;27;20070;-71
2023/04/29 12:16:39;;;;;;;8.27;3.00;;;;;;;;;;5082829;27;20116;-71
2023/04/29 12:19:05;;;;;;;4.90;2.63;;;;;;;;;;5082755;27;20047;-71
2023/04/29 12:21:33;;;;;;;8.95;3.20;;;;;;;;;;5087850;27;20050;-71
2023/04/29 12:24:01;;;;;;;5.60;2.90;;;;;;;;;;5090903;27;20080;-71
2023/04/29 12:26:29;;;;;;;5.28;2.30;;;;;;;;;;5089605;27;20039;-71
2023/04/29 12:28:57;;;;;;;3.05;1.95;;;;;;;;;;5089792;27;20460;-71
2023/04/29 12:31:25;;;;;;;4.13;2.20;;;;;;;;;;5085192;27;20611;-71
2023/04/29 12:33:54;;;;;;;7.07;2.72;;;;;;;;;;5087408;27;20097;-71
2023/04/29 12:36:20;;;;;;;5.75;3.05;;;;;;;;;;5088735;27;20093;-71
2023/04/29 12:38:48;;;;;;;6.82;2.67;;;;;;;;;;5082740;27;20044;-69
2023/04/29 12:41:16;;;;;;;5.10;2.55;;;;;;;;;;5079084;27;20497;-70
2023/04/29 12:43:42;;;;;;;5.22;3.20;;;;;;;;;;5084025;27;20477;-70
2023/04/29 12:46:11;;;;;;;5.53;3.03;;;;;;;;;;5079904;27;20858;-70
2023/04/29 12:48:39;;;;;;;5.55;3.40;;;;;;;;;;5080945;27;20420;-70
2023/04/29 12:51:08;;;;;;;6.18;3.70;;;;;;;;;;5084159;27;20050;-71
2023/04/29 12:53:35;;;;;;;5.00;3.08;;;;;;;;;;5099255;27;20078;-70
2023/04/29 12:56:01;;;;;;;3.92;3.33;;;;;;;;;;5059815;27;20769;-70
2023/04/29 12:58:31;;;;;;;9.50;3.83;;;;;;;;;;5082694;27;20071;-70
2023/04/29 13:00:58;;;;;;;6.45;3.85;;;;;;;;;;5084158;27;20083;-70
2023/04/29 13:03:24;;;;;;;6.00;3.85;;;;;;;;;;5084304;27;20051;-70
2023/04/29 13:05:52;;;;;;;5.40;3.88;;;;;;;;;;5081563;27;20050;-70
2023/04/29 13:08:18;;;;;;;8.05;3.92;;;;;;;;;;5082953;27;20059;-70
2023/04/29 13:10:45;;;;;;;9.65;4.22;;;;;;;;;;5083392;27;20090;-70
2023/04/29 13:13:12;;;;;;;7.35;4.45;;;;;;;;;;5083455;27;20144;-70
2023/04/29 13:15:38;;;;;;;19.73;5.97;;;;;;;;;;5082382;27;20055;-70
2023/04/29 13:18:05;;;;;;;11.60;6.03;;;;;;;;;;5083615;27;20047;-70
2023/04/29 13:20:32;;;;;;;8.82;5.45;;;;;;;;;;5087135;27;20553;-70
2023/04/29 13:22:58;;;;;;;8.75;5.30;;;;;;;;;;5084135;27;20083;-70
2023/04/29 13:25:24;;;;;;;7.88;5.15;;;;;;;;;;5086554;27;20039;-70
2023/04/29 13:27:50;;;;;;;6.70;4.85;;;;;;;;;;5085789;27;20199;-70
2023/04/29 13:30:16;;;;;;;9.60;5.57;;;;;;;;;;5086248;27;20055;-74
2023/04/29 13:32:43;;;;;;;7.63;4.90;;;;;;;;;;5081992;27;20059;-73
2023/04/29 13:35:09;;;;;;;9.48;5.43;;;;;;;;;;5086264;27;20122;-73
2023/04/29 13:37:35;;;;;;;7.40;5.10;;;;;;;;;;5077074;27;20047;-73
2023/04/29 13:40:01;;;;;;;9.07;4.72;;;;;;;;;;5083939;27;20048;-73
2023/04/29 13:42:27;;;;;;;6.93;4.70;;;;;;;;;;5090092;27;20035;-74
2023/04/29 13:44:56;;;;;;;7.90;5.97;;;;;;;;;;5083314;27;20512;-74
2023/04/29 13:47:22;;;;;;;6.45;5.10;;;;;;;;;;5083543;27;21810;-73
2023/04/29 13:49:48;;;;;;;8.65;5.25;;;;;;;;;;5084913;27;21773;-71
2023/04/29 13:52:15;;;;;;;11.05;5.47;;;;;;;;;;5082252;27;20134;-71
2023/04/29 13:54:41;;;;;;;8.70;5.03;;;;;;;;;;5082100;27;20040;-71
2023/04/29 13:57:07;;;;;;;7.88;5.05;;;;;;;;;;5083670;27;20039;-71
2023/04/29 13:59:34;;;;;;;11.38;5.65;;;;;;;;;;5075523;27;20560;-71
2023/04/29 14:02:00;;;;;;;8.98;5.15;;;;;;;;;;5083458;27;20131;-70
2023/04/29 14:04:26;;;;;;;10.30;5.35;;;;;;;;;;5082546;27;20562;-70
2023/04/29 14:06:53;;;;;;;8.10;4.43;;;;;;;;;;5084785;27;20042;-71
2023/04/29 14:09:20;;;;;;;11.57;5.53;;;;;;;;;;5083138;27;20070;-71
2023/04/29 14:11:46;;;;;;;10.82;5.18;;;;;;;;;;5082709;27;20044;-71
2023/04/29 14:14:12;;;;;;;9.45;5.18;;;;;;;;;;5084251;27;20195;-70
2023/04/29 14:16:38;;;;;;;7.95;4.93;;;;;;;;;;5084620;27;20403;-71
2023/04/29 14:19:04;;;;;;;11.85;4.53;;;;;;;;;;5080723;27;20035;-71
2023/04/29 14:21:32;;;;;;;8.30;4.57;;;;;;;;;;5083106;27;20554;-71
2023/04/29 14:23:58;;;;;;;6.78;4.13;;;;;;;;;;5083002;27;20048;-72
2023/04/29 14:26:25;;;;;;;12.30;4.50;;;;;;;;;;5082869;27;20035;-71
2023/04/29 14:28:58;;;;;;;8.43;4.13;;;;;;;;;;5082250;27;20146;-71